sensor_id;sensor_type;location;lat;lon;timestamp;temperature;humidity
33095;DHT22;19459;53.044;8.910;2023-02-28T00:00:27;3.40;99.90
33095;DHT22;19459;53.044;8.910;2023-02-28T00:02:54;3.40;99.90
33095;DHT22;19459;53.044;8.910;2023-02-28T00:05:22;3.40;99.90
33095;DHT22;19459;53.044;8.910;2023-02-28T00:07:49;3.40;99.90
33095;DHT22;19459;53.044;8.910;2023-02-28T00:10:21;3.40;99.90
33095;DHT22;19459;53.044;8.910;2023-02-28T00:12:50;3.40;99.90
33095;DHT22;19459;53.044;8.910;2023-02-28T00:15:16;3.30;99.90
33095;DHT22;19459;53.044;8.910;2023-02-28T00:17:43;3.30;99.90
33095;DHT22;19459;53.044;8.910;2023-02-28T00:20:10;3.30;99.90
33095;DHT22;19459;53.044;8.910;2023-02-28T00:22:43;3.30;99.90
33095;DHT22;19459;53.044;8.910;2023-02-28T00:25:11;3.30;99.90
33095;DHT22;19459;53.044;8.910;2023-02-28T00:27:40;3.30;99.90
33095;DHT22;19459;53.044;8.910;2023-02-28T00:30:08;3.30;99.90
33095;DHT22;19459;53.044;8.910;2023-02-28T00:32:36;3.30;99.90
33095;DHT22;19459;53.044;8.910;2023-02-28T00:35:03;3.20;99.90
33095;DHT22;19459;53.044;8.910;2023-02-28T00:37:29;3.20;99.90
33095;DHT22;19459;53.044;8.910;2023-02-28T00:39:54;3.20;99.90
33095;DHT22;19459;53.044;8.910;2023-02-28T00:42:20;3.20;99.90
33095;DHT22;19459;53.044;8.910;2023-02-28T00:44:47;3.10;99.90
33095;DHT22;19459;53.044;8.910;2023-02-28T00:47:12;3.10;99.90
33095;DHT22;19459;53.044;8.910;2023-02-28T00:49:38;3.10;99.90
33095;DHT22;19459;53.044;8.910;2023-02-28T00:52:04;3.10;99.90
33095;DHT22;19459;53.044;8.910;2023-02-28T00:54:30;3.00;99.90
33095;DHT22;19459;53.044;8.910;2023-02-28T00:56:55;3.00;99.90
33095;DHT22;19459;53.044;8.910;2023-02-28T00:59:21;3.00;99.90
33095;DHT22;19459;53.044;8.910;2023-02-28T01:01:47;3.00;99.90
33095;DHT22;19459;53.044;8.910;2023-02-28T01:04:13;3.00;99.90
33095;DHT22;19459;53.044;8.910;2023-02-28T01:06:40;3.00;99.90
33095;DHT22;19459;53.044;8.910;2023-02-28T01:09:06;3.00;99.90
33095;DHT22;19459;53.044;8.910;2023-02-28T01:11:34;3.00;99.90
33095;DHT22;19459;53.044;8.910;2023-02-28T01:14:00;2.90;99.90
33095;DHT22;19459;53.044;8.910;2023-02-28T01:16:27;3.00;99.90
33095;DHT22;19459;53.044;8.910;2023-02-28T01:18:53;3.00;99.90
33095;DHT22;19459;53.044;8.910;2023-02-28T01:21:21;2.90;99.90
33095;DHT22;19459;53.044;8.910;2023-02-28T01:23:48;2.90;99.90
33095;DHT22;19459;53.044;8.910;2023-02-28T01:26:20;2.90;99.90
33095;DHT22;19459;53.044;8.910;2023-02-28T01:28:47;2.80;99.90
33095;DHT22;19459;53.044;8.910;2023-02-28T01:31:14;2.90;99.90
33095;DHT22;19459;53.044;8.910;2023-02-28T01:33:40;2.80;99.90
33095;DHT22;19459;53.044;8.910;2023-02-28T01:36:12;2.80;99.90
33095;DHT22;19459;53.044;8.910;2023-02-28T01:38:45;2.80;99.90
33095;DHT22;19459;53.044;8.910;2023-02-28T01:41:25;2.80;99.90
33095;DHT22;19459;53.044;8.910;2023-02-28T01:46:29;2.80;99.90
33095;DHT22;19459;53.044;8.910;2023-02-28T01:49:11;2.80;99.90
33095;DHT22;19459;53.044;8.910;2023-02-28T01:52:11;2.80;99.90
33095;DHT22;19459;53.044;8.910;2023-02-28T01:54:32;2.80;99.90
33095;DHT22;19459;53.044;8.910;2023-02-28T01:57:10;2.80;99.90
33095;DHT22;19459;53.044;8.910;2023-02-28T02:00:07;2.80;99.90
33095;DHT22;19459;53.044;8.910;2023-02-28T02:02:39;2.70;99.90
33095;DHT22;19459;53.044;8.910;2023-02-28T02:05:20;2.70;99.90
33095;DHT22;19459;53.044;8.910;2023-02-28T02:07:51;2.60;99.90
33095;DHT22;19459;53.044;8.910;2023-02-28T02:10:41;2.50;99.90
33095;DHT22;19459;53.044;8.910;2023-02-28T02:25:44;2.50;99.90
33095;DHT22;19459;53.044;8.910;2023-02-28T02:37:15;2.40;99.90
33095;DHT22;19459;53.044;8.910;2023-02-28T02:40:30;2.30;99.90
33095;DHT22;19459;53.044;8.910;2023-02-28T02:43:19;2.30;99.90
33095;DHT22;19459;53.044;8.910;2023-02-28T02:45:53;2.30;99.90
33095;DHT22;19459;53.044;8.910;2023-02-28T02:48:25;2.20;99.90
33095;DHT22;19459;53.044;8.910;2023-02-28T02:50:58;2.20;99.90
33095;DHT22;19459;53.044;8.910;2023-02-28T02:53:41;2.10;99.90
33095;DHT22;19459;53.044;8.910;2023-02-28T02:56:09;2.00;99.90
33095;DHT22;19459;53.044;8.910;2023-02-28T02:58:40;2.00;99.90
33095;DHT22;19459;53.044;8.910;2023-02-28T03:01:12;1.90;99.90
33095;DHT22;19459;53.044;8.910;2023-02-28T03:03:41;1.90;99.90
33095;DHT22;19459;53.044;8.910;2023-02-28T03:06:07;1.80;99.90
33095;DHT22;19459;53.044;8.910;2023-02-28T03:08:35;1.80;99.90
33095;DHT22;19459;53.044;8.910;2023-02-28T03:11:05;1.60;99.90
33095;DHT22;19459;53.044;8.910;2023-02-28T03:16:32;1.60;99.90
33095;DHT22;19459;53.044;8.910;2023-02-28T03:25:09;1.50;99.90
33095;DHT22;19459;53.044;8.910;2023-02-28T03:30:52;1.50;99.90
33095;DHT22;19459;53.044;8.910;2023-02-28T03:36:04;1.50;99.90
33095;DHT22;19459;53.044;8.910;2023-02-28T03:41:20;1.40;99.90
33095;DHT22;19459;53.044;8.910;2023-02-28T03:44:15;1.40;99.90
33095;DHT22;19459;53.044;8.910;2023-02-28T03:46:48;1.40;99.90
33095;DHT22;19459;53.044;8.910;2023-02-28T03:49:32;1.40;99.90
33095;DHT22;19459;53.044;8.910;2023-02-28T03:52:02;1.40;99.90
33095;DHT22;19459;53.044;8.910;2023-02-28T03:54:32;1.30;99.90
33095;DHT22;19459;53.044;8.910;2023-02-28T03:57:22;1.30;99.90
33095;DHT22;19459;53.044;8.910;2023-02-28T03:59:58;1.20;99.90
33095;DHT22;19459;53.044;8.910;2023-02-28T04:02:31;1.10;99.90
33095;DHT22;19459;53.044;8.910;2023-02-28T04:04:57;1.10;99.90
33095;DHT22;19459;53.044;8.910;2023-02-28T04:07:30;1.10;99.90
33095;DHT22;19459;53.044;8.910;2023-02-28T04:09:56;1.10;99.90
33095;DHT22;19459;53.044;8.910;2023-02-28T04:12:22;1.10;99.90
33095;DHT22;19459;53.044;8.910;2023-02-28T04:14:49;1.10;99.90
33095;DHT22;19459;53.044;8.910;2023-02-28T04:17:16;1.00;99.90
33095;DHT22;19459;53.044;8.910;2023-02-28T04:19:42;1.00;99.90
33095;DHT22;19459;53.044;8.910;2023-02-28T04:22:09;1.00;99.90
33095;DHT22;19459;53.044;8.910;2023-02-28T04:24:35;1.00;99.90
33095;DHT22;19459;53.044;8.910;2023-02-28T04:27:02;0.90;99.90
33095;DHT22;19459;53.044;8.910;2023-02-28T04:29:31;0.90;99.90
33095;DHT22;19459;53.044;8.910;2023-02-28T04:31:59;0.90;99.90
33095;DHT22;19459;53.044;8.910;2023-02-28T04:34:30;0.90;99.90
33095;DHT22;19459;53.044;8.910;2023-02-28T04:36:57;0.80;99.90
33095;DHT22;19459;53.044;8.910;2023-02-28T04:39:24;0.80;99.90
33095;DHT22;19459;53.044;8.910;2023-02-28T04:41:50;0.80;99.90
33095;DHT22;19459;53.044;8.910;2023-02-28T04:44:16;0.70;99.90
33095;DHT22;19459;53.044;8.910;2023-02-28T04:46:43;0.70;99.90
33095;DHT22;19459;53.044;8.910;2023-02-28T04:49:12;0.70;99.90
33095;DHT22;19459;53.044;8.910;2023-02-28T04:51:38;0.60;99.90
33095;DHT22;19459;53.044;8.910;2023-02-28T04:54:05;0.60;99.90
33095;DHT22;19459;53.044;8.910;2023-02-28T04:56:30;0.50;99.90
33095;DHT22;19459;53.044;8.910;2023-02-28T04:58:56;0.60;99.90
33095;DHT22;19459;53.044;8.910;2023-02-28T05:01:31;0.50;99.90
33095;DHT22;19459;53.044;8.910;2023-02-28T05:04:00;0.50;99.90
33095;DHT22;19459;53.044;8.910;2023-02-28T05:06:28;0.40;99.90
33095;DHT22;19459;53.044;8.910;2023-02-28T05:08:56;0.40;99.90
33095;DHT22;19459;53.044;8.910;2023-02-28T05:11:31;0.40;99.90
33095;DHT22;19459;53.044;8.910;2023-02-28T05:14:02;0.40;99.90
33095;DHT22;19459;53.044;8.910;2023-02-28T05:16:32;0.30;99.90
33095;DHT22;19459;53.044;8.910;2023-02-28T05:18:58;0.30;99.90
33095;DHT22;19459;53.044;8.910;2023-02-28T05:23:59;0.20;99.90
33095;DHT22;19459;53.044;8.910;2023-02-28T05:26:26;0.20;99.90
33095;DHT22;19459;53.044;8.910;2023-02-28T05:28:53;0.10;99.90
33095;DHT22;19459;53.044;8.910;2023-02-28T05:31:21;0.10;99.90
33095;DHT22;19459;53.044;8.910;2023-02-28T05:33:47;0.10;99.90
33095;DHT22;19459;53.044;8.910;2023-02-28T05:36:13;0.00;99.90
33095;DHT22;19459;53.044;8.910;2023-02-28T05:38:38;0.00;99.90
33095;DHT22;19459;53.044;8.910;2023-02-28T05:41:08;-0.10;99.90
33095;DHT22;19459;53.044;8.910;2023-02-28T05:43:35;-0.10;99.90
33095;DHT22;19459;53.044;8.910;2023-02-28T05:46:06;-0.10;99.90
33095;DHT22;19459;53.044;8.910;2023-02-28T05:48:34;-0.10;99.90
33095;DHT22;19459;53.044;8.910;2023-02-28T05:51:01;-0.10;99.90
33095;DHT22;19459;53.044;8.910;2023-02-28T05:53:28;-0.10;99.90
33095;DHT22;19459;53.044;8.910;2023-02-28T05:55:53;-0.20;99.90
33095;DHT22;19459;53.044;8.910;2023-02-28T05:58:20;-0.20;99.90
33095;DHT22;19459;53.044;8.910;2023-02-28T06:00:47;-0.20;99.90
33095;DHT22;19459;53.044;8.910;2023-02-28T06:03:13;-0.30;99.90
33095;DHT22;19459;53.044;8.910;2023-02-28T06:05:39;-0.30;99.90
33095;DHT22;19459;53.044;8.910;2023-02-28T06:08:05;-0.30;99.90
33095;DHT22;19459;53.044;8.910;2023-02-28T06:10:37;-0.30;99.90
33095;DHT22;19459;53.044;8.910;2023-02-28T06:13:03;-0.30;99.90
33095;DHT22;19459;53.044;8.910;2023-02-28T06:15:30;-0.30;99.90
33095;DHT22;19459;53.044;8.910;2023-02-28T06:17:56;-0.30;99.90
33095;DHT22;19459;53.044;8.910;2023-02-28T06:20:23;-0.40;99.90
33095;DHT22;19459;53.044;8.910;2023-02-28T06:22:50;-0.40;99.90
33095;DHT22;19459;53.044;8.910;2023-02-28T06:25:16;-0.40;99.90
33095;DHT22;19459;53.044;8.910;2023-02-28T06:27:43;-0.40;99.90
33095;DHT22;19459;53.044;8.910;2023-02-28T06:30:10;-0.40;99.90
33095;DHT22;19459;53.044;8.910;2023-02-28T06:32:37;-0.40;99.90
33095;DHT22;19459;53.044;8.910;2023-02-28T06:35:03;-0.40;99.90
33095;DHT22;19459;53.044;8.910;2023-02-28T06:37:31;-0.50;99.90
33095;DHT22;19459;53.044;8.910;2023-02-28T06:39:57;-0.50;99.90
33095;DHT22;19459;53.044;8.910;2023-02-28T06:42:24;-0.50;99.90
33095;DHT22;19459;53.044;8.910;2023-02-28T06:44:55;-0.40;99.90
33095;DHT22;19459;53.044;8.910;2023-02-28T06:47:21;-0.50;99.90
33095;DHT22;19459;53.044;8.910;2023-02-28T06:49:47;-0.50;99.90
33095;DHT22;19459;53.044;8.910;2023-02-28T06:52:14;-0.50;99.90
33095;DHT22;19459;53.044;8.910;2023-02-28T06:54:39;-0.50;99.90
33095;DHT22;19459;53.044;8.910;2023-02-28T06:57:05;-0.50;99.90
33095;DHT22;19459;53.044;8.910;2023-02-28T06:59:31;-0.40;99.90
33095;DHT22;19459;53.044;8.910;2023-02-28T07:01:57;-0.50;99.90
33095;DHT22;19459;53.044;8.910;2023-02-28T07:04:23;-0.50;99.90
33095;DHT22;19459;53.044;8.910;2023-02-28T07:06:48;-0.50;99.90
33095;DHT22;19459;53.044;8.910;2023-02-28T07:09:14;-0.40;99.90
33095;DHT22;19459;53.044;8.910;2023-02-28T07:11:41;-0.50;99.90
33095;DHT22;19459;53.044;8.910;2023-02-28T07:14:08;-0.40;99.90
33095;DHT22;19459;53.044;8.910;2023-02-28T07:16:35;-0.50;99.90
33095;DHT22;19459;53.044;8.910;2023-02-28T07:19:01;-0.40;99.90
33095;DHT22;19459;53.044;8.910;2023-02-28T07:21:27;-0.40;99.90
33095;DHT22;19459;53.044;8.910;2023-02-28T07:23:53;-0.40;99.90
33095;DHT22;19459;53.044;8.910;2023-02-28T07:26:19;-0.30;99.90
33095;DHT22;19459;53.044;8.910;2023-02-28T07:28:47;-0.20;99.90
33095;DHT22;19459;53.044;8.910;2023-02-28T07:31:14;-0.20;99.90
33095;DHT22;19459;53.044;8.910;2023-02-28T07:33:40;-0.20;99.90
33095;DHT22;19459;53.044;8.910;2023-02-28T07:36:09;-0.20;99.90
33095;DHT22;19459;53.044;8.910;2023-02-28T07:38:45;-0.10;99.90
33095;DHT22;19459;53.044;8.910;2023-02-28T07:41:14;-0.10;99.90
33095;DHT22;19459;53.044;8.910;2023-02-28T07:43:41;0.00;99.90
33095;DHT22;19459;53.044;8.910;2023-02-28T07:46:10;0.10;99.90
33095;DHT22;19459;53.044;8.910;2023-02-28T07:48:37;0.10;99.90
33095;DHT22;19459;53.044;8.910;2023-02-28T07:51:03;0.20;99.90
33095;DHT22;19459;53.044;8.910;2023-02-28T07:53:30;0.30;99.90
33095;DHT22;19459;53.044;8.910;2023-02-28T07:55:56;0.40;99.90
33095;DHT22;19459;53.044;8.910;2023-02-28T07:58:23;0.50;99.90
33095;DHT22;19459;53.044;8.910;2023-02-28T08:00:50;0.60;99.90
33095;DHT22;19459;53.044;8.910;2023-02-28T08:03:17;0.70;99.90
33095;DHT22;19459;53.044;8.910;2023-02-28T08:05:44;0.80;99.90
33095;DHT22;19459;53.044;8.910;2023-02-28T08:08:10;0.90;99.90
33095;DHT22;19459;53.044;8.910;2023-02-28T08:10:36;1.00;99.90
33095;DHT22;19459;53.044;8.910;2023-02-28T08:13:02;1.10;99.90
33095;DHT22;19459;53.044;8.910;2023-02-28T08:15:28;1.30;99.90
33095;DHT22;19459;53.044;8.910;2023-02-28T08:17:54;1.30;99.90
33095;DHT22;19459;53.044;8.910;2023-02-28T08:20:22;1.40;99.90
33095;DHT22;19459;53.044;8.910;2023-02-28T08:22:51;1.50;99.90
33095;DHT22;19459;53.044;8.910;2023-02-28T08:25:17;1.60;99.90
33095;DHT22;19459;53.044;8.910;2023-02-28T08:27:43;1.70;99.90
33095;DHT22;19459;53.044;8.910;2023-02-28T08:30:13;1.80;99.90
33095;DHT22;19459;53.044;8.910;2023-02-28T08:32:40;1.90;99.90
33095;DHT22;19459;53.044;8.910;2023-02-28T08:35:06;2.10;99.90
33095;DHT22;19459;53.044;8.910;2023-02-28T08:37:34;2.10;99.90
33095;DHT22;19459;53.044;8.910;2023-02-28T08:40:00;2.20;99.90
33095;DHT22;19459;53.044;8.910;2023-02-28T08:42:26;2.30;99.90
33095;DHT22;19459;53.044;8.910;2023-02-28T08:44:51;2.40;99.90
33095;DHT22;19459;53.044;8.910;2023-02-28T08:47:17;2.50;99.90
33095;DHT22;19459;53.044;8.910;2023-02-28T08:49:43;2.60;99.90
33095;DHT22;19459;53.044;8.910;2023-02-28T08:52:09;2.80;99.90
33095;DHT22;19459;53.044;8.910;2023-02-28T08:54:35;2.90;99.90
33095;DHT22;19459;53.044;8.910;2023-02-28T08:57:02;3.10;99.90
33095;DHT22;19459;53.044;8.910;2023-02-28T08:59:29;3.20;99.90
33095;DHT22;19459;53.044;8.910;2023-02-28T09:01:55;3.40;99.90
33095;DHT22;19459;53.044;8.910;2023-02-28T09:04:21;3.50;99.90
33095;DHT22;19459;53.044;8.910;2023-02-28T09:06:47;3.70;99.90
33095;DHT22;19459;53.044;8.910;2023-02-28T09:09:14;3.80;99.90
33095;DHT22;19459;53.044;8.910;2023-02-28T09:11:40;3.90;99.90
33095;DHT22;19459;53.044;8.910;2023-02-28T09:14:06;4.00;99.90
33095;DHT22;19459;53.044;8.910;2023-02-28T09:16:33;4.10;99.90
33095;DHT22;19459;53.044;8.910;2023-02-28T09:18:59;4.20;99.90
33095;DHT22;19459;53.044;8.910;2023-02-28T09:21:25;4.60;99.90
33095;DHT22;19459;53.044;8.910;2023-02-28T09:23:51;4.80;99.90
33095;DHT22;19459;53.044;8.910;2023-02-28T09:26:23;5.10;99.90
33095;DHT22;19459;53.044;8.910;2023-02-28T09:28:51;5.40;99.90
33095;DHT22;19459;53.044;8.910;2023-02-28T09:31:23;5.50;99.90
33095;DHT22;19459;53.044;8.910;2023-02-28T09:33:52;5.60;99.90
33095;DHT22;19459;53.044;8.910;2023-02-28T09:36:22;5.60;99.60
33095;DHT22;19459;53.044;8.910;2023-02-28T09:38:49;5.50;99.90
33095;DHT22;19459;53.044;8.910;2023-02-28T09:41:23;5.80;99.50
33095;DHT22;19459;53.044;8.910;2023-02-28T09:43:53;6.20;99.90
33095;DHT22;19459;53.044;8.910;2023-02-28T09:46:37;6.10;99.20
33095;DHT22;19459;53.044;8.910;2023-02-28T09:49:11;6.40;99.90
33095;DHT22;19459;53.044;8.910;2023-02-28T09:54:14;7.10;98.80
33095;DHT22;19459;53.044;8.910;2023-02-28T09:56:53;7.20;96.90
33095;DHT22;19459;53.044;8.910;2023-02-28T10:05:11;7.60;96.20
33095;DHT22;19459;53.044;8.910;2023-02-28T10:13:00;8.80;93.00
33095;DHT22;19459;53.044;8.910;2023-02-28T10:15:31;8.90;90.90
33095;DHT22;19459;53.044;8.910;2023-02-28T10:18:02;9.20;91.30
33095;DHT22;19459;53.044;8.910;2023-02-28T10:20:33;9.10;89.20
33095;DHT22;19459;53.044;8.910;2023-02-28T10:23:20;8.80;91.10
33095;DHT22;19459;53.044;8.910;2023-02-28T10:25:52;8.10;91.40
33095;DHT22;19459;53.044;8.910;2023-02-28T10:28:20;8.10;91.70
33095;DHT22;19459;53.044;8.910;2023-02-28T10:30:49;8.30;91.90
33095;DHT22;19459;53.044;8.910;2023-02-28T10:35:54;8.70;91.40
33095;DHT22;19459;53.044;8.910;2023-02-28T10:38:27;8.60;90.60
33095;DHT22;19459;53.044;8.910;2023-02-28T10:41:44;8.90;90.70
33095;DHT22;19459;53.044;8.910;2023-02-28T10:44:22;8.70;91.20
33095;DHT22;19459;53.044;8.910;2023-02-28T10:46:49;8.50;90.30
33095;DHT22;19459;53.044;8.910;2023-02-28T10:49:28;9.20;93.10
33095;DHT22;19459;53.044;8.910;2023-02-28T10:51:57;9.30;90.50
33095;DHT22;19459;53.044;8.910;2023-02-28T10:54:33;9.30;89.30
33095;DHT22;19459;53.044;8.910;2023-02-28T10:57:22;9.50;90.50
33095;DHT22;19459;53.044;8.910;2023-02-28T10:59:52;8.90;89.90
33095;DHT22;19459;53.044;8.910;2023-02-28T11:02:39;9.40;91.30
33095;DHT22;19459;53.044;8.910;2023-02-28T11:10:56;10.00;89.90
33095;DHT22;19459;53.044;8.910;2023-02-28T11:13:33;9.90;87.70
33095;DHT22;19459;53.044;8.910;2023-02-28T11:16:06;9.70;86.80
33095;DHT22;19459;53.044;8.910;2023-02-28T11:21:29;10.30;87.30
33095;DHT22;19459;53.044;8.910;2023-02-28T11:26:48;10.80;87.10
33095;DHT22;19459;53.044;8.910;2023-02-28T11:34:37;10.30;86.10
33095;DHT22;19459;53.044;8.910;2023-02-28T11:37:05;10.60;83.90
33095;DHT22;19459;53.044;8.910;2023-02-28T11:39:33;10.90;87.30
33095;DHT22;19459;53.044;8.910;2023-02-28T11:48:21;12.10;85.40
33095;DHT22;19459;53.044;8.910;2023-02-28T11:56:44;12.30;80.40
33095;DHT22;19459;53.044;8.910;2023-02-28T12:07:13;12.60;80.20
33095;DHT22;19459;53.044;8.910;2023-02-28T12:13:29;11.60;81.50
33095;DHT22;19459;53.044;8.910;2023-02-28T12:16:13;12.00;84.00
33095;DHT22;19459;53.044;8.910;2023-02-28T12:19:16;12.20;78.60
33095;DHT22;19459;53.044;8.910;2023-02-28T12:22:43;12.30;83.10
33095;DHT22;19459;53.044;8.910;2023-02-28T12:28:13;12.10;81.80
33095;DHT22;19459;53.044;8.910;2023-02-28T12:30:55;12.20;84.20
33095;DHT22;19459;53.044;8.910;2023-02-28T12:33:29;12.70;81.20
33095;DHT22;19459;53.044;8.910;2023-02-28T12:36:05;12.90;80.70
33095;DHT22;19459;53.044;8.910;2023-02-28T12:38:43;12.70;78.50
33095;DHT22;19459;53.044;8.910;2023-02-28T12:44:01;12.80;81.30
33095;DHT22;19459;53.044;8.910;2023-02-28T12:46:41;12.70;79.50
33095;DHT22;19459;53.044;8.910;2023-02-28T12:49:13;13.20;81.30
33095;DHT22;19459;53.044;8.910;2023-02-28T12:51:41;13.30;77.40
33095;DHT22;19459;53.044;8.910;2023-02-28T12:54:28;13.40;78.10
33095;DHT22;19459;53.044;8.910;2023-02-28T12:57:18;13.40;79.40
33095;DHT22;19459;53.044;8.910;2023-02-28T13:00:03;13.70;78.20
33095;DHT22;19459;53.044;8.910;2023-02-28T13:02:52;13.60;76.30
33095;DHT22;19459;53.044;8.910;2023-02-28T13:11:06;13.60;78.40
33095;DHT22;19459;53.044;8.910;2023-02-28T13:13:32;13.50;75.30
33095;DHT22;19459;53.044;8.910;2023-02-28T13:18:39;13.40;75.10
33095;DHT22;19459;53.044;8.910;2023-02-28T13:21:09;13.10;74.10
33095;DHT22;19459;53.044;8.910;2023-02-28T13:24:01;13.30;74.70
33095;DHT22;19459;53.044;8.910;2023-02-28T13:29:41;13.60;77.50
33095;DHT22;19459;53.044;8.910;2023-02-28T13:34:41;13.60;75.80
33095;DHT22;19459;53.044;8.910;2023-02-28T13:39:50;13.60;75.50
33095;DHT22;19459;53.044;8.910;2023-02-28T13:45:20;13.30;76.50
33095;DHT22;19459;53.044;8.910;2023-02-28T13:48:02;13.30;76.80
33095;DHT22;19459;53.044;8.910;2023-02-28T13:50:38;13.50;75.20
33095;DHT22;19459;53.044;8.910;2023-02-28T13:53:22;13.50;76.10
33095;DHT22;19459;53.044;8.910;2023-02-28T13:56:23;13.30;73.10
33095;DHT22;19459;53.044;8.910;2023-02-28T13:59:03;13.60;76.00
33095;DHT22;19459;53.044;8.910;2023-02-28T14:04:38;13.50;76.80
33095;DHT22;19459;53.044;8.910;2023-02-28T14:07:33;13.50;71.30
33095;DHT22;19459;53.044;8.910;2023-02-28T14:10:06;13.40;72.70
33095;DHT22;19459;53.044;8.910;2023-02-28T14:15:38;13.30;73.10
33095;DHT22;19459;53.044;8.910;2023-02-28T14:18:20;13.20;73.20
33095;DHT22;19459;53.044;8.910;2023-02-28T14:20:49;13.10;72.80
33095;DHT22;19459;53.044;8.910;2023-02-28T14:26:07;12.90;69.70
33095;DHT22;19459;53.044;8.910;2023-02-28T14:36:59;12.50;70.90
33095;DHT22;19459;53.044;8.910;2023-02-28T14:39:27;12.00;70.00
33095;DHT22;19459;53.044;8.910;2023-02-28T14:41:56;12.10;71.90
33095;DHT22;19459;53.044;8.910;2023-02-28T14:44:28;12.00;71.10
33095;DHT22;19459;53.044;8.910;2023-02-28T14:47:02;12.10;72.40
33095;DHT22;19459;53.044;8.910;2023-02-28T14:49:45;12.20;74.30
33095;DHT22;19459;53.044;8.910;2023-02-28T14:52:21;12.30;74.70
33095;DHT22;19459;53.044;8.910;2023-02-28T14:55:00;12.20;73.90
33095;DHT22;19459;53.044;8.910;2023-02-28T14:57:35;12.20;75.30
33095;DHT22;19459;53.044;8.910;2023-02-28T15:00:27;12.00;74.60
33095;DHT22;19459;53.044;8.910;2023-02-28T15:02:56;11.80;75.00
33095;DHT22;19459;53.044;8.910;2023-02-28T15:05:33;11.90;76.30
33095;DHT22;19459;53.044;8.910;2023-02-28T15:08:16;12.00;76.40
33095;DHT22;19459;53.044;8.910;2023-02-28T15:10:59;11.90;74.70
33095;DHT22;19459;53.044;8.910;2023-02-28T15:13:48;11.80;76.40
33095;DHT22;19459;53.044;8.910;2023-02-28T15:16:22;11.60;75.80
33095;DHT22;19459;53.044;8.910;2023-02-28T15:19:12;11.60;77.30
33095;DHT22;19459;53.044;8.910;2023-02-28T15:21:44;11.60;77.40
33095;DHT22;19459;53.044;8.910;2023-02-28T15:24:35;11.50;77.70
33095;DHT22;19459;53.044;8.910;2023-02-28T15:27:06;11.40;78.30
33095;DHT22;19459;53.044;8.910;2023-02-28T15:29:50;11.40;77.30
33095;DHT22;19459;53.044;8.910;2023-02-28T15:34:55;11.00;76.60
33095;DHT22;19459;53.044;8.910;2023-02-28T15:37:37;10.90;76.40
33095;DHT22;19459;53.044;8.910;2023-02-28T15:40:26;10.70;76.80
33095;DHT22;19459;53.044;8.910;2023-02-28T15:43:06;10.70;79.00
33095;DHT22;19459;53.044;8.910;2023-02-28T15:48:42;10.40;80.60
33095;DHT22;19459;53.044;8.910;2023-02-28T15:56:31;9.70;79.00
33095;DHT22;19459;53.044;8.910;2023-02-28T15:59:03;9.60;79.00
33095;DHT22;19459;53.044;8.910;2023-02-28T16:01:33;9.40;79.80
33095;DHT22;19459;53.044;8.910;2023-02-28T16:04:04;9.10;79.10
33095;DHT22;19459;53.044;8.910;2023-02-28T16:06:44;9.00;81.60
33095;DHT22;19459;53.044;8.910;2023-02-28T16:09:13;8.80;81.10
33095;DHT22;19459;53.044;8.910;2023-02-28T16:11:47;8.70;81.80
33095;DHT22;19459;53.044;8.910;2023-02-28T16:14:22;8.60;82.40
33095;DHT22;19459;53.044;8.910;2023-02-28T16:16:52;8.60;84.10
33095;DHT22;19459;53.044;8.910;2023-02-28T16:19:19;8.40;83.30
33095;DHT22;19459;53.044;8.910;2023-02-28T16:21:46;8.30;83.80
33095;DHT22;19459;53.044;8.910;2023-02-28T16:24:12;8.20;85.90
33095;DHT22;19459;53.044;8.910;2023-02-28T16:26:40;8.20;87.20
33095;DHT22;19459;53.044;8.910;2023-02-28T16:29:08;8.10;85.60
33095;DHT22;19459;53.044;8.910;2023-02-28T16:31:37;8.00;87.10
33095;DHT22;19459;53.044;8.910;2023-02-28T16:34:04;7.90;88.90
33095;DHT22;19459;53.044;8.910;2023-02-28T16:36:30;8.00;90.30
33095;DHT22;19459;53.044;8.910;2023-02-28T16:38:56;7.80;89.40
33095;DHT22;19459;53.044;8.910;2023-02-28T16:41:25;7.70;90.10
33095;DHT22;19459;53.044;8.910;2023-02-28T16:43:54;7.60;90.30
33095;DHT22;19459;53.044;8.910;2023-02-28T16:46:30;7.50;90.70
33095;DHT22;19459;53.044;8.910;2023-02-28T16:48:58;7.40;90.60
33095;DHT22;19459;53.044;8.910;2023-02-28T16:51:24;7.30;91.20
33095;DHT22;19459;53.044;8.910;2023-02-28T16:53:50;7.20;91.70
33095;DHT22;19459;53.044;8.910;2023-02-28T16:56:21;7.10;92.00
33095;DHT22;19459;53.044;8.910;2023-02-28T16:58:50;7.00;92.70
33095;DHT22;19459;53.044;8.910;2023-02-28T17:01:17;6.90;93.10
33095;DHT22;19459;53.044;8.910;2023-02-28T17:03:47;6.80;93.30
33095;DHT22;19459;53.044;8.910;2023-02-28T17:06:23;6.60;93.90
33095;DHT22;19459;53.044;8.910;2023-02-28T17:08:53;6.50;94.50
33095;DHT22;19459;53.044;8.910;2023-02-28T17:11:20;6.30;95.10
33095;DHT22;19459;53.044;8.910;2023-02-28T17:13:47;6.20;95.50
33095;DHT22;19459;53.044;8.910;2023-02-28T17:18:56;5.90;96.40
33095;DHT22;19459;53.044;8.910;2023-02-28T17:21:24;5.80;96.90
33095;DHT22;19459;53.044;8.910;2023-02-28T17:23:49;5.70;97.40
33095;DHT22;19459;53.044;8.910;2023-02-28T17:26:18;5.50;97.90
33095;DHT22;19459;53.044;8.910;2023-02-28T17:28:46;5.40;98.50
33095;DHT22;19459;53.044;8.910;2023-02-28T17:31:12;5.20;99.00
33095;DHT22;19459;53.044;8.910;2023-02-28T17:33:38;5.20;99.80
33095;DHT22;19459;53.044;8.910;2023-02-28T17:36:05;5.10;99.90
33095;DHT22;19459;53.044;8.910;2023-02-28T17:38:32;5.00;99.90
33095;DHT22;19459;53.044;8.910;2023-02-28T17:40:57;4.90;99.90
33095;DHT22;19459;53.044;8.910;2023-02-28T17:43:26;4.80;99.90
33095;DHT22;19459;53.044;8.910;2023-02-28T17:45:53;4.70;99.90
33095;DHT22;19459;53.044;8.910;2023-02-28T17:48:19;4.60;99.90
33095;DHT22;19459;53.044;8.910;2023-02-28T17:50:45;4.50;99.90
33095;DHT22;19459;53.044;8.910;2023-02-28T17:53:11;4.40;99.90
33095;DHT22;19459;53.044;8.910;2023-02-28T17:55:37;4.40;99.90
33095;DHT22;19459;53.044;8.910;2023-02-28T17:58:04;4.30;99.90
33095;DHT22;19459;53.044;8.910;2023-02-28T18:00:30;4.10;99.90
33095;DHT22;19459;53.044;8.910;2023-02-28T18:02:58;4.00;99.90
33095;DHT22;19459;53.044;8.910;2023-02-28T18:05:24;3.90;99.90
33095;DHT22;19459;53.044;8.910;2023-02-28T18:07:51;3.90;99.90
33095;DHT22;19459;53.044;8.910;2023-02-28T18:10:19;3.80;99.90
33095;DHT22;19459;53.044;8.910;2023-02-28T18:12:51;3.80;99.90
33095;DHT22;19459;53.044;8.910;2023-02-28T18:15:19;3.70;99.90
33095;DHT22;19459;53.044;8.910;2023-02-28T18:17:47;3.60;99.90
33095;DHT22;19459;53.044;8.910;2023-02-28T18:20:13;3.50;99.90
33095;DHT22;19459;53.044;8.910;2023-02-28T18:22:40;3.50;99.90
33095;DHT22;19459;53.044;8.910;2023-02-28T18:25:08;3.40;99.90
33095;DHT22;19459;53.044;8.910;2023-02-28T18:27:38;3.30;99.90
33095;DHT22;19459;53.044;8.910;2023-02-28T18:30:05;3.30;99.90
33095;DHT22;19459;53.044;8.910;2023-02-28T18:32:31;3.20;99.90
33095;DHT22;19459;53.044;8.910;2023-02-28T18:34:57;3.10;99.90
33095;DHT22;19459;53.044;8.910;2023-02-28T18:37:23;3.00;99.90
33095;DHT22;19459;53.044;8.910;2023-02-28T18:39:49;3.00;99.90